SKVV/VVC METAR and TAF weather

Enter ICAO airport designator
Station Type Date Time Source
SKVV METAR 2021/07/15 12:00 UTC NOAA

SKVV 151200Z VRB02KT 9999 FEW020 SCT090 20/19 Q1017 RMK A3004


Station Type Date Time Source
SKVV Decoded METAR 2021/07/15 12:00 UTC NOAA

Villavicencio / Vanguardia, Colombia (SKVV) 04-10N 073-37W 431M
Jul 15, 2021 - 08:00 AM EDT / 2021.07.15 1200 UTC
Wind: Variable at 2 MPH (2 KT):0
Visibility: greater than 7 mile(s):0
Sky conditions: partly cloudy
Temperature: 68 F (20 C)
Dew Point: 66 F (19 C)
Relative Humidity: 93%
Pressure (altimeter): 30.03 in. Hg (1017 hPa)
ob: SKVV 151200Z VRB02KT 9999 FEW020 SCT090 20/19 Q1017 RMK A3004
cycle: 12

Station Type Date Time Source
SKVV TAF UTC NOAA

Error!

Example: see airport list